Time;durP1;ratioP1;P1;durP2;ratioP2;P2;SDS_P1;SDS_P2;PMS_P1;PMS_P2;Temp;Humidity;BMP_temperature;BMP_pressure;BME280_temperature;BME280_humidity;BME280_pressure;Samples;Min_cycle;Max_cycle;Signal;HPM_P1;HPM_P2
2023/02/20 00:02:23;;;;;;;3.67;2.30;;;;;;;6.53;69.90;101064.59;5034650;28;20033;-69
2023/02/20 00:04:48;;;;;;;6.55;2.20;;;;;;;6.58;70.24;101088.31;5019311;28;20120;-69
2023/02/20 00:07:14;;;;;;;6.40;2.20;;;;;;;6.52;67.27;101046.88;5025160;28;20026;-69
2023/02/20 00:09:42;;;;;;;4.05;2.10;;;;;;;6.64;68.46;101103.91;5023234;28;20096;-69
2023/02/20 00:12:07;;;;;;;3.45;2.25;;;;;;;6.51;69.04;101093.13;5020483;28;20026;-68
2023/02/20 00:14:33;;;;;;;4.68;2.30;;;;;;;6.37;69.15;101077.09;5031342;28;20086;-68
2023/02/20 00:16:58;;;;;;;3.65;2.20;;;;;;;6.60;67.17;101103.25;5034469;28;20033;-68
2023/02/20 00:19:24;;;;;;;3.28;2.08;;;;;;;6.56;66.44;101112.38;5037755;28;20114;-68
2023/02/20 00:21:50;;;;;;;3.50;1.85;;;;;;;6.37;67.02;101093.09;5041374;28;20068;-68
2023/02/20 00:24:17;;;;;;;3.85;2.45;;;;;;;6.34;67.27;101097.72;5035288;28;20120;-67
2023/02/20 00:26:51;;;;;;;4.68;2.22;;;;;;;6.53;66.00;101112.56;5037840;28;20025;-68
2023/02/20 00:29:19;;;;;;;2.83;1.80;;;;;;;6.73;64.62;101130.91;5030722;28;20032;-67
2023/02/20 00:31:51;;;;;;;3.10;2.05;;;;;;;6.54;65.54;101118.72;5028513;28;20025;-68
2023/02/20 00:34:16;;;;;;;2.88;2.17;;;;;;;6.63;64.72;101134.19;5032330;28;20025;-67
2023/02/20 00:36:42;;;;;;;2.67;2.05;;;;;;;6.59;63.92;101146.84;5032885;28;20100;-67
2023/02/20 00:39:07;;;;;;;3.15;1.55;;;;;;;6.50;63.27;101154.50;5032729;28;20035;-67
2023/02/20 00:41:32;;;;;;;1.92;1.45;;;;;;;6.25;64.21;101139.06;5031746;28;20037;-67
2023/02/20 00:43:58;;;;;;;2.50;1.70;;;;;;;6.27;64.08;101150.50;5029981;28;20033;-68
2023/02/20 00:46:23;;;;;;;2.33;1.77;;;;;;;6.37;64.12;101172.16;5031362;28;20032;-67
2023/02/20 00:48:49;;;;;;;2.53;1.80;;;;;;;6.27;63.29;101141.66;5029304;28;20032;-67
2023/02/20 00:51:15;;;;;;;3.75;1.92;;;;;;;6.02;64.14;101118.22;5032159;28;20033;-68
2023/02/20 00:53:40;;;;;;;3.63;2.35;;;;;;;6.30;64.75;101178.78;5033357;28;20045;-67
2023/02/20 00:56:06;;;;;;;2.10;1.58;;;;;;;6.00;64.79;101132.56;5031969;28;20091;-68
2023/02/20 00:58:32;;;;;;;4.75;1.75;;;;;;;6.15;64.65;101183.16;5035206;28;20122;-68
2023/02/20 01:00:57;;;;;;;3.28;1.98;;;;;;;5.99;64.41;101137.03;5026745;28;20060;-67
2023/02/20 01:03:22;;;;;;;4.18;2.00;;;;;;;6.01;64.54;101155.56;5030535;28;20029;-68
2023/02/20 01:05:48;;;;;;;2.75;1.50;;;;;;;5.87;64.60;101140.34;5029396;28;20030;-68
2023/02/20 01:08:13;;;;;;;2.63;1.70;;;;;;;5.97;64.36;101162.88;5028354;28;20025;-68
2023/02/20 01:10:39;;;;;;;4.38;1.60;;;;;;;5.79;63.79;101131.91;5027802;28;20049;-67
2023/02/20 01:13:04;;;;;;;2.08;1.70;;;;;;;5.91;64.40;101154.38;5030275;28;20033;-68
2023/02/20 01:15:30;;;;;;;3.28;1.90;;;;;;;5.70;64.11;101121.78;5028675;28;20029;-67
2023/02/20 01:17:55;;;;;;;3.70;1.52;;;;;;;5.49;64.82;101106.13;5033078;28;20133;-67
2023/02/20 01:20:21;;;;;;;3.63;1.88;;;;;;;5.76;64.65;101171.13;5034549;28;20032;-67
2023/02/20 01:22:46;;;;;;;2.40;1.50;;;;;;;5.66;65.21;101162.81;5035573;28;20033;-67
2023/02/20 01:25:12;;;;;;;2.63;1.50;;;;;;;5.48;65.28;101139.00;5041827;28;20064;-68
2023/02/20 01:27:37;;;;;;;3.55;1.95;;;;;;;5.51;65.18;101129.03;5032839;28;20029;-67
2023/02/20 01:30:03;;;;;;;3.40;1.65;;;;;;;5.56;64.23;101137.66;5032227;28;20028;-66
2023/02/20 01:32:28;;;;;;;1.67;1.25;;;;;;;5.52;64.39;101132.56;5032452;28;20029;-67
2023/02/20 01:34:54;;;;;;;2.28;1.73;;;;;;;5.50;64.66;101153.94;5031046;28;20029;-68
2023/02/20 01:37:19;;;;;;;2.67;1.60;;;;;;;5.51;64.37;101153.00;5031038;28;20531;-67
2023/02/20 01:39:47;;;;;;;3.90;1.55;;;;;;;5.58;64.23;101165.00;5031556;28;20025;-68
2023/02/20 01:42:17;;;;;;;2.85;1.73;;;;;;;5.55;64.49;101174.97;5029006;28;20030;-67
2023/02/20 01:44:43;;;;;;;3.92;1.63;;;;;;;5.51;64.93;101168.94;5034673;28;20037;-67
2023/02/20 01:47:16;;;;;;;2.65;1.58;;;;;;;5.18;65.08;101144.16;5031756;28;20102;-67
2023/02/20 01:49:59;;;;;;;2.05;1.58;;;;;;;5.31;65.06;101163.84;5030659;28;20070;-67
2023/02/20 01:52:27;;;;;;;4.40;1.75;;;;;;;5.31;64.99;101169.16;5040053;28;20029;-67
2023/02/20 01:55:17;;;;;;;3.55;1.63;;;;;;;5.28;65.35;101169.31;5025275;28;20025;-68
2023/02/20 01:57:50;;;;;;;4.38;2.05;;;;;;;5.23;66.16;101168.72;5035142;28;20060;-68
2023/02/20 02:00:19;;;;;;;3.80;2.00;;;;;;;5.18;66.18;101151.25;5033481;28;20697;-68
2023/02/20 02:02:50;;;;;;;5.20;2.10;;;;;;;5.16;66.49;101155.81;5034319;28;20509;-68
2023/02/20 02:05:17;;;;;;;4.18;1.85;;;;;;;5.23;66.73;101171.38;5034618;28;20338;-68
2023/02/20 02:07:43;;;;;;;3.90;1.98;;;;;;;5.17;66.80;101149.53;5034611;28;20021;-68
2023/02/20 02:10:13;;;;;;;2.45;2.08;;;;;;;5.19;67.85;101172.44;5032461;28;20045;-68
2023/02/20 02:13:00;;;;;;;3.25;1.90;;;;;;;5.16;68.52;101169.94;5078567;27;1362058;-67
2023/02/20 02:15:26;;;;;;;5.00;2.05;;;;;;;5.14;69.14;101182.47;5092781;28;20043;-67
2023/02/20 02:18:10;;;;;;;3.65;2.15;;;;;;;5.12;69.65;101176.38;5095853;28;20031;-68
2023/02/20 02:21:13;;;;;;;4.07;2.33;;;;;;;5.02;70.24;101179.56;5105144;28;20026;-67
2023/02/20 02:24:00;;;;;;;3.88;2.55;;;;;;;5.06;70.27;101179.34;5079886;28;20028;-67
2023/02/20 02:26:50;;;;;;;3.90;2.00;;;;;;;4.96;71.11;101171.94;5066330;28;20055;-68
2023/02/20 02:29:40;;;;;;;4.55;2.97;;;;;;;4.88;72.29;101176.78;5089853;28;20063;-67
2023/02/20 02:32:12;;;;;;;5.47;2.53;;;;;;;4.94;73.19;101187.97;5086385;28;20024;-67
2023/02/20 02:35:16;;;;;;;7.65;3.58;;;;;;;4.99;73.47;101183.25;5104689;28;20020;-68
2023/02/20 02:38:14;;;;;;;9.00;3.95;;;;;;;5.01;74.44;101178.72;5101967;28;20028;-67
2023/02/20 02:40:57;;;;;;;6.53;3.67;;;;;;;4.94;75.68;101190.63;5104303;28;20368;-68
2023/02/20 02:43:34;;;;;;;6.60;3.43;;;;;;;4.83;77.23;101194.75;5104482;28;20032;-67
2023/02/20 02:46:09;;;;;;;5.28;3.05;;;;;;;4.77;77.95;101198.56;5086513;28;20301;-68
2023/02/20 02:48:49;;;;;;;5.32;3.50;;;;;;;4.72;78.24;101195.28;5104392;28;20035;-67
2023/02/20 02:51:19;;;;;;;4.95;3.30;;;;;;;4.65;78.95;101172.63;5104724;28;20032;-67
2023/02/20 02:54:04;;;;;;;5.90;3.42;;;;;;;4.73;79.52;101197.00;5104440;28;20036;-67
2023/02/20 02:56:38;;;;;;;5.60;3.45;;;;;;;4.65;79.94;101207.16;5094671;28;20047;-67
2023/02/20 02:59:06;;;;;;;7.50;3.75;;;;;;;4.62;79.99;101200.19;5089394;28;20060;-66
2023/02/20 03:01:36;;;;;;;7.30;3.45;;;;;;;4.63;80.22;101195.75;5083394;28;20027;-66
2023/02/20 03:04:05;;;;;;;4.85;3.30;;;;;;;4.53;80.79;101198.00;5065335;28;20028;-67
2023/02/20 03:06:35;;;;;;;5.40;3.33;;;;;;;4.52;80.94;101204.22;5065863;28;20024;-66
2023/02/20 03:09:07;;;;;;;3.80;2.92;;;;;;;4.56;81.02;101207.63;5104375;28;20394;-68
2023/02/20 03:11:35;;;;;;;4.40;2.85;;;;;;;4.55;80.82;101208.56;5076179;28;20040;-67
2023/02/20 03:17:30;;;;;;;5.60;3.22;;;;;;;4.45;81.47;101208.13;5095771;28;20050;-67
2023/02/20 03:20:04;;;;;;;6.30;3.50;;;;;;;4.43;81.00;101207.38;5090756;28;20032;-68
2023/02/20 03:22:40;;;;;;;;;;;;;;;4.33;81.78;101213.19;5081358;28;20043;-68
2023/02/20 03:25:20;;;;;;;4.10;3.05;;;;;;;4.29;82.41;101216.94;5071811;28;19938;-67
2023/02/20 03:28:02;;;;;;;7.88;2.80;;;;;;;4.31;82.00;101205.28;5070651;28;20199;-67
2023/02/20 03:30:41;;;;;;;6.22;3.00;;;;;;;4.45;80.42;101199.31;5089116;28;20032;-67
2023/02/20 03:44:25;;;;;;;5.20;3.17;;;;;;;4.52;79.21;101225.47;5085696;28;20043;-69
2023/02/20 03:46:53;;;;;;;4.22;3.25;;;;;;;4.42;80.03;101226.88;5070488;28;20032;-68
2023/02/20 03:49:25;;;;;;;4.70;3.35;;;;;;;4.58;79.76;101235.81;5070295;28;20058;-67
2023/02/20 03:51:57;;;;;;;8.25;4.80;;;;;;;4.51;79.91;101234.41;5069717;28;20031;-67
2023/02/20 03:54:23;;;;;;;7.55;3.53;;;;;;;4.68;79.16;101233.59;5090425;28;20084;-68
2023/02/20 03:56:53;;;;;;;5.03;3.10;;;;;;;4.85;77.81;101246.91;5072181;28;20436;-68
2023/02/20 03:59:28;;;;;;;4.35;2.97;;;;;;;4.74;78.82;101246.53;5056807;28;20027;-67
2023/02/20 04:02:01;;;;;;;8.40;3.28;;;;;;;4.74;78.28;101238.56;5051953;28;20632;-68
2023/02/20 04:04:39;;;;;;;5.00;3.20;;;;;;;4.77;78.44;101251.72;5083409;28;20058;-67
2023/02/20 04:07:11;;;;;;;5.10;3.17;;;;;;;4.80;77.98;101269.31;5090178;28;20028;-69
2023/02/20 04:09:41;;;;;;;6.07;3.53;;;;;;;4.70;77.61;101268.91;5070207;28;20047;-67
2023/02/20 04:12:22;;;;;;;5.38;3.13;;;;;;;4.55;78.99;101261.69;5048564;28;20099;-67
2023/02/20 04:14:49;;;;;;;6.18;2.97;;;;;;;4.60;78.81;101262.31;5049919;28;20040;-68
2023/02/20 04:17:19;;;;;;;5.68;3.22;;;;;;;4.55;79.02;101267.00;5061933;28;20035;-69
2023/02/20 04:19:45;;;;;;;4.82;3.35;;;;;;;4.48;80.24;101270.84;5058850;28;20039;-67
2023/02/20 04:22:18;;;;;;;6.45;3.30;;;;;;;4.48;80.05;101276.16;5054529;28;20017;-67
2023/02/20 04:25:01;;;;;;;6.30;3.45;;;;;;;4.52;80.24;101273.28;5060095;28;20041;-66
2023/02/20 04:27:26;;;;;;;6.20;3.90;;;;;;;4.67;79.90;101272.56;5058541;28;20024;-67
2023/02/20 04:29:52;;;;;;;5.00;3.60;;;;;;;4.70;79.76;101266.25;5055585;28;20037;-67
2023/02/20 04:32:18;;;;;;;6.10;3.70;;;;;;;4.68;80.07;101268.13;5056755;28;20025;-67
2023/02/20 04:34:44;;;;;;;8.57;3.95;;;;;;;4.63;80.62;101270.13;5053163;28;20041;-67
2023/02/20 04:37:12;;;;;;;11.25;4.20;;;;;;;4.63;80.66;101272.78;5055297;28;20571;-68
2023/02/20 04:39:37;;;;;;;5.78;4.07;;;;;;;4.53;80.99;101268.84;5068874;28;20027;-68
2023/02/20 04:42:03;;;;;;;6.10;3.97;;;;;;;4.40;82.35;101271.25;5061025;28;20032;-68
2023/02/20 04:44:32;;;;;;;5.00;3.75;;;;;;;4.35;83.04;101275.03;5065077;28;20033;-67
2023/02/20 04:47:00;;;;;;;8.77;4.07;;;;;;;4.35;83.20;101272.38;5048980;28;20025;-66
2023/02/20 04:49:26;;;;;;;6.55;3.85;;;;;;;4.37;82.24;101270.50;5057069;28;20032;-66
2023/02/20 04:51:51;;;;;;;5.65;4.00;;;;;;;4.35;82.35;101262.63;5056868;28;20028;-66
2023/02/20 04:54:17;;;;;;;5.97;3.55;;;;;;;4.37;82.13;101254.59;5049421;28;20028;-66
2023/02/20 04:56:42;;;;;;;9.02;3.97;;;;;;;4.25;82.17;101237.44;5054248;28;20154;-67
2023/02/20 04:59:08;;;;;;;7.90;4.00;;;;;;;4.29;81.93;101248.78;5049187;28;20114;-67
2023/02/20 05:01:33;;;;;;;6.18;3.25;;;;;;;4.21;81.99;101235.00;5058134;28;20025;-68
2023/02/20 05:03:59;;;;;;;6.03;4.13;;;;;;;4.20;82.23;101239.44;5057797;28;20136;-67
2023/02/20 05:06:24;;;;;;;5.65;3.63;;;;;;;4.21;82.50;101237.66;5051330;28;20384;-67
2023/02/20 05:08:50;;;;;;;5.63;3.53;;;;;;;4.19;82.68;101248.34;5047308;28;20115;-68
2023/02/20 05:11:15;;;;;;;7.03;3.42;;;;;;;4.25;82.33;101239.22;5059440;28;20404;-66
2023/02/20 05:13:41;;;;;;;5.93;3.55;;;;;;;4.22;82.42;101253.50;5088574;28;20089;-66
2023/02/20 05:16:07;;;;;;;6.95;3.63;;;;;;;4.27;81.99;101248.00;5086922;28;20024;-67
2023/02/20 05:18:33;;;;;;;8.55;3.72;;;;;;;4.32;81.67;101254.78;5079463;28;20032;-66
2023/02/20 05:23:46;;;;;;;7.85;4.05;;;;;;;4.23;82.10;101249.91;5080623;28;20090;-69
2023/02/20 05:26:17;;;;;;;7.47;4.20;;;;;;;4.25;82.10;101248.06;5073437;28;20032;-67
2023/02/20 05:28:44;;;;;;;8.48;4.38;;;;;;;4.09;81.99;101239.09;5073540;28;20036;-67
2023/02/20 05:31:09;;;;;;;7.68;4.05;;;;;;;4.22;81.90;101258.81;5061225;28;20115;-68
2023/02/20 05:33:35;;;;;;;10.05;4.00;;;;;;;4.22;82.53;101281.84;5074337;28;20104;-67
2023/02/20 05:36:00;;;;;;;7.07;3.70;;;;;;;4.13;82.26;101269.03;5067688;28;20070;-68
2023/02/20 05:38:26;;;;;;;7.20;4.07;;;;;;;4.22;81.57;101293.34;5067925;28;20388;-66
2023/02/20 05:40:51;;;;;;;9.13;3.65;;;;;;;4.19;81.18;101279.31;5071735;28;20143;-67
2023/02/20 05:43:17;;;;;;;10.70;3.70;;;;;;;4.19;80.61;101274.91;5088294;28;20027;-67
2023/02/20 05:45:43;;;;;;;7.32;3.00;;;;;;;4.26;80.32;101281.63;5079917;28;20032;-66
2023/02/20 05:48:11;;;;;;;4.57;2.92;;;;;;;4.32;80.07;101284.00;5070512;28;20162;-68
2023/02/20 05:50:36;;;;;;;8.32;3.60;;;;;;;4.29;80.19;101286.81;5067937;28;20554;-67
2023/02/20 05:53:02;;;;;;;6.95;3.42;;;;;;;4.35;79.52;101290.97;5067924;28;20062;-68
2023/02/20 05:55:27;;;;;;;5.55;3.30;;;;;;;4.27;80.07;101283.38;5058406;28;20036;-68
2023/02/20 05:57:53;;;;;;;8.93;3.50;;;;;;;4.32;79.29;101273.38;5087195;28;20471;-68
2023/02/20 06:00:18;;;;;;;7.25;3.60;;;;;;;4.40;78.45;101284.53;5085061;28;20378;-68
2023/02/20 06:02:44;;;;;;;5.95;3.08;;;;;;;4.40;78.96;101294.28;5086692;28;20081;-68
2023/02/20 06:05:10;;;;;;;5.35;2.75;;;;;;;4.38;78.71;101290.81;5087793;28;20062;-68
2023/02/20 06:07:35;;;;;;;7.85;3.38;;;;;;;4.40;78.88;101300.47;5054118;28;20487;-67
2023/02/20 06:10:01;;;;;;;6.85;2.58;;;;;;;4.51;78.16;101305.25;5068849;28;20070;-68
2023/02/20 06:12:27;;;;;;;6.40;3.13;;;;;;;4.52;77.77;101312.31;5055031;28;20090;-68
2023/02/20 06:14:52;;;;;;;5.95;2.88;;;;;;;4.43;78.15;101302.97;5079396;28;20589;-68
2023/02/20 06:17:17;;;;;;;9.20;3.42;;;;;;;4.58;77.39;101315.50;5087495;28;20034;-68
2023/02/20 06:19:43;;;;;;;5.43;2.55;;;;;;;4.57;76.97;101312.94;5084430;28;20027;-68
2023/02/20 06:22:08;;;;;;;6.18;2.08;;;;;;;4.60;77.42;101318.09;5067919;28;20365;-67
2023/02/20 06:24:34;;;;;;;6.32;2.50;;;;;;;4.62;77.32;101327.69;5072256;28;20036;-67
2023/02/20 06:27:01;;;;;;;5.18;2.40;;;;;;;4.54;77.71;101331.66;5081123;28;20030;-69
2023/02/20 06:29:27;;;;;;;4.97;2.67;;;;;;;4.51;77.81;101337.13;5074604;28;20425;-68
2023/02/20 06:31:53;;;;;;;4.47;2.80;;;;;;;4.63;77.20;101339.22;5087244;28;20084;-68
2023/02/20 06:34:18;;;;;;;8.15;3.95;;;;;;;4.71;76.70;101342.38;5076989;28;20031;-68
2023/02/20 06:36:44;;;;;;;9.52;3.10;;;;;;;4.82;76.39;101340.06;5069731;28;20041;-68
2023/02/20 06:39:12;;;;;;;5.30;2.55;;;;;;;4.88;75.97;101334.44;5077933;28;20475;-67
2023/02/20 06:41:37;;;;;;;5.40;2.88;;;;;;;4.90;75.88;101343.19;5078243;28;20194;-68
2023/02/20 06:44:03;;;;;;;9.05;3.38;;;;;;;4.86;74.98;101323.03;5080944;28;20024;-69
2023/02/20 06:46:28;;;;;;;9.77;3.35;;;;;;;4.91;74.82;101325.47;5062329;28;20382;-68
2023/02/20 06:48:56;;;;;;;6.07;3.30;;;;;;;4.91;75.11;101323.66;5085483;28;20028;-68
2023/02/20 06:51:25;;;;;;;6.32;3.65;;;;;;;4.96;75.67;101337.59;5076549;28;20039;-67
2023/02/20 06:53:50;;;;;;;8.15;3.10;;;;;;;4.86;75.60;101328.34;5067459;28;20039;-68
2023/02/20 06:56:20;;;;;;;7.25;3.33;;;;;;;4.89;75.59;101329.97;5074674;28;20538;-67
2023/02/20 06:58:46;;;;;;;7.68;3.20;;;;;;;4.98;75.35;101340.16;5087456;28;20032;-67
2023/02/20 07:01:12;;;;;;;9.23;3.30;;;;;;;4.99;75.39;101341.91;5073350;28;20092;-67
2023/02/20 07:03:38;;;;;;;4.22;2.70;;;;;;;5.08;75.37;101354.72;5091699;28;20024;-67
2023/02/20 07:06:03;;;;;;;11.77;2.75;;;;;;;5.06;74.70;101336.19;5067626;28;20387;-68
2023/02/20 07:08:29;;;;;;;7.78;2.83;;;;;;;5.10;74.97;101352.88;5073193;28;20024;-68
2023/02/20 07:10:54;;;;;;;7.78;3.10;;;;;;;5.08;75.40;101346.75;5085303;28;20060;-68
2023/02/20 07:13:21;;;;;;;9.90;3.70;;;;;;;5.03;75.95;101348.78;5085827;28;20043;-68
2023/02/20 07:15:47;;;;;;;6.20;3.05;;;;;;;4.95;76.74;101335.88;5055041;28;20572;-68
2023/02/20 07:18:13;;;;;;;5.63;3.05;;;;;;;5.05;75.78;101353.09;5070807;28;20036;-67
2023/02/20 07:20:39;;;;;;;8.13;3.58;;;;;;;5.30;73.91;101350.97;5089159;28;20020;-67
2023/02/20 07:23:04;;;;;;;6.93;2.97;;;;;;;5.21;74.34;101351.41;5069367;28;20455;-68
2023/02/20 07:25:30;;;;;;;7.38;3.25;;;;;;;5.34;73.87;101357.84;5073442;28;20047;-68
2023/02/20 07:27:55;;;;;;;7.28;2.40;;;;;;;5.35;74.10;101356.06;5068788;28;20077;-70
2023/02/20 07:30:23;;;;;;;5.53;2.97;;;;;;;5.35;74.59;101346.25;5064580;28;20020;-69
2023/02/20 07:32:49;;;;;;;3.90;2.22;;;;;;;5.39;74.08;101337.22;5059970;28;20025;-68
2023/02/20 07:35:15;;;;;;;4.80;2.08;;;;;;;5.47;74.71;101350.97;5064074;28;20032;-68
2023/02/20 07:37:40;;;;;;;5.22;2.20;;;;;;;5.31;76.60;101330.53;5064572;28;20027;-70
2023/02/20 07:40:06;;;;;;;4.03;2.03;;;;;;;5.45;77.08;101349.31;5086156;28;20483;-69
2023/02/20 07:42:32;;;;;;;6.38;2.70;;;;;;;5.44;78.32;101351.13;5083242;28;20024;-70
2023/02/20 07:44:57;;;;;;;5.57;2.55;;;;;;;5.44;78.53;101359.09;5078403;28;20059;-70
2023/02/20 07:47:22;;;;;;;4.50;2.35;;;;;;;5.45;79.14;101371.44;5066612;28;20032;-69
2023/02/20 07:49:48;;;;;;;8.35;2.72;;;;;;;5.43;79.48;101364.50;5079076;28;20082;-69
2023/02/20 07:52:13;;;;;;;6.95;2.72;;;;;;;5.56;76.88;101354.97;5075215;28;20038;-68
2023/02/20 07:54:39;;;;;;;5.03;2.90;;;;;;;5.49;78.02;101353.56;5077897;28;20038;-68
2023/02/20 07:57:04;;;;;;;4.13;2.30;;;;;;;5.55;78.00;101369.22;5083873;28;20042;-69
2023/02/20 07:59:30;;;;;;;4.88;2.42;;;;;;;5.54;78.99;101372.78;5063313;28;20028;-69
2023/02/20 08:01:55;;;;;;;7.60;2.70;;;;;;;5.54;78.18;101365.69;5077497;28;20042;-69
2023/02/20 08:04:20;;;;;;;5.45;2.67;;;;;;;5.60;77.94;101359.19;5081241;28;20100;-68
2023/02/20 08:06:46;;;;;;;4.72;2.22;;;;;;;5.60;78.13;101372.47;5072297;28;20513;-68
2023/02/20 08:09:11;;;;;;;5.65;2.70;;;;;;;5.54;78.28;101356.81;5072937;28;20026;-69
2023/02/20 08:11:37;;;;;;;5.47;2.33;;;;;;;5.58;78.08;101363.75;5080300;28;20035;-69
2023/02/20 08:14:04;;;;;;;5.63;2.50;;;;;;;5.54;77.80;101364.81;5085092;28;20080;-68
2023/02/20 08:16:30;;;;;;;8.20;2.05;;;;;;;5.61;77.79;101372.41;5080417;28;20089;-66
2023/02/20 08:18:55;;;;;;;5.47;2.67;;;;;;;5.57;78.26;101362.88;5074660;28;20463;-67
2023/02/20 08:21:21;;;;;;;5.80;2.53;;;;;;;5.72;76.46;101377.19;5074709;28;20527;-68
2023/02/20 08:23:47;;;;;;;5.65;2.10;;;;;;;5.62;76.76;101367.94;5061580;28;20098;-69
2023/02/20 08:26:12;;;;;;;4.50;2.55;;;;;;;5.64;76.88;101380.22;5081987;28;20085;-68
2023/02/20 08:28:38;;;;;;;6.47;3.13;;;;;;;5.75;75.31;101377.03;5066678;28;20549;-70
2023/02/20 08:31:04;;;;;;;5.05;2.78;;;;;;;5.72;74.56;101346.13;5061447;28;20134;-68
2023/02/20 08:33:30;;;;;;;6.65;3.45;;;;;;;5.93;73.34;101366.31;5068949;28;20059;-67
2023/02/20 08:35:56;;;;;;;8.65;3.55;;;;;;;5.90;75.00;101368.31;5053271;28;20121;-67
2023/02/20 08:38:33;;;;;;;12.45;2.85;;;;;;;5.90;74.39;101362.97;5069782;28;20033;-68
2023/02/20 08:41:01;;;;;;;3.97;2.15;;;;;;;5.97;73.23;101357.22;5074750;28;20024;-69
2023/02/20 08:43:27;;;;;;;10.98;5.35;;;;;;;5.89;74.67;101354.13;5081646;28;20024;-70
2023/02/20 08:45:52;;;;;;;6.43;2.30;;;;;;;6.01;74.30;101356.16;5078923;28;20085;-69
2023/02/20 08:48:18;;;;;;;5.90;2.60;;;;;;;6.08;72.01;101341.56;5078485;28;20074;-69
2023/02/20 08:50:44;;;;;;;6.63;2.60;;;;;;;6.08;72.10;101316.72;5087066;28;20023;-69
2023/02/20 08:53:09;;;;;;;7.97;3.70;;;;;;;6.39;70.77;101338.97;5081411;28;20028;-69
2023/02/20 08:55:35;;;;;;;4.93;2.78;;;;;;;6.48;71.59;101338.47;5075884;28;20108;-70
2023/02/20 08:58:00;;;;;;;5.22;3.15;;;;;;;6.48;70.15;101322.47;5085401;28;20497;-70
2023/02/20 09:00:27;;;;;;;8.02;2.63;;;;;;;6.60;69.61;101321.81;5081861;28;20025;-69
2023/02/20 09:02:52;;;;;;;6.40;2.13;;;;;;;6.45;70.68;101317.31;5078756;28;20111;-69
2023/02/20 09:05:18;;;;;;;8.95;2.50;;;;;;;6.71;68.62;101313.22;5054862;28;20073;-69
2023/02/20 09:07:44;;;;;;;4.38;2.28;;;;;;;6.81;69.00;101325.91;5059893;28;20024;-69
2023/02/20 09:10:09;;;;;;;4.55;2.15;;;;;;;6.85;68.10;101315.94;5058534;28;20036;-69
2023/02/20 09:12:35;;;;;;;10.70;2.63;;;;;;;6.86;68.48;101310.53;5060142;28;20041;-68
2023/02/20 09:15:01;;;;;;;6.82;2.58;;;;;;;6.94;67.93;101302.94;5055054;28;20028;-70
2023/02/20 09:17:27;;;;;;;6.05;2.22;;;;;;;7.10;66.84;101296.75;5071816;28;20054;-70
2023/02/20 09:19:53;;;;;;;4.60;2.20;;;;;;;7.19;66.57;101296.22;5078627;28;20035;-69
2023/02/20 09:22:23;;;;;;;5.32;1.90;;;;;;;7.17;66.80;101293.63;5052135;28;20024;-68
2023/02/20 09:24:50;;;;;;;5.20;2.05;;;;;;;7.24;65.98;101307.44;5042619;28;20536;-68
2023/02/20 09:27:16;;;;;;;5.40;2.35;;;;;;;7.22;67.16;101310.22;5074689;28;20483;-68
2023/02/20 09:29:43;;;;;;;8.27;2.30;;;;;;;7.18;68.02;101302.47;5075832;28;20428;-68
2023/02/20 09:32:09;;;;;;;6.20;2.83;;;;;;;7.28;67.63;101303.69;5076651;28;20024;-69
2023/02/20 09:34:35;;;;;;;9.15;2.33;;;;;;;7.23;67.64;101295.94;5082907;28;20035;-69
2023/02/20 09:37:00;;;;;;;5.57;2.55;;;;;;;7.35;67.34;101310.38;5058261;28;20177;-68
2023/02/20 09:39:26;;;;;;;6.25;2.60;;;;;;;7.34;67.66;101298.81;5057117;28;20021;-69
2023/02/20 09:42:03;;;;;;;3.58;2.15;;;;;;;7.55;66.76;101307.38;5079716;28;20047;-70
2023/02/20 09:45:02;;;;;;;5.10;1.95;;;;;;;7.69;67.18;101304.72;5055427;28;20042;-69
2023/02/20 09:47:54;;;;;;;4.38;2.60;;;;;;;7.92;67.75;101301.53;5072176;28;20039;-69
2023/02/20 09:50:31;;;;;;;5.70;3.05;;;;;;;8.39;65.65;101297.63;5053579;28;20399;-69
2023/02/20 09:53:23;;;;;;;4.18;2.38;;;;;;;9.12;62.88;101299.09;5053623;28;20122;-69
2023/02/20 09:55:51;;;;;;;3.38;2.35;;;;;;;10.15;60.79;101293.72;5067498;28;20555;-69
2023/02/20 09:58:42;;;;;;;7.60;3.10;;;;;;;12.05;54.55;101277.50;5078333;28;20032;-69
2023/02/20 10:01:10;;;;;;;6.28;2.40;;;;;;;13.35;50.50;101283.81;5079250;28;20040;-70
2023/02/20 10:03:47;;;;;;;4.15;2.17;;;;;;;14.17;47.91;101275.72;5078277;28;20027;-70
2023/02/20 10:06:16;;;;;;;3.00;2.03;;;;;;;14.62;47.40;101265.44;5057588;28;20036;-68
2023/02/20 10:08:42;;;;;;;4.78;2.03;;;;;;;15.67;44.65;101245.63;5059848;28;20033;-69
2023/02/20 10:11:15;;;;;;;3.92;2.20;;;;;;;16.66;42.76;101262.13;5080241;28;20376;-69
2023/02/20 10:14:00;;;;;;;4.32;2.20;;;;;;;18.15;39.38;101240.50;5073905;28;20037;-70
2023/02/20 10:16:45;;;;;;;4.65;2.22;;;;;;;19.00;38.36;101258.41;5082302;28;20040;-70
2023/02/20 10:19:19;;;;;;;5.88;2.28;;;;;;;20.13;36.41;101251.16;5079045;28;20027;-70
2023/02/20 10:22:11;;;;;;;4.70;1.77;;;;;;;20.86;35.71;101244.41;5065999;28;20075;-70
2023/02/20 10:25:01;;;;;;;3.28;2.00;;;;;;;20.61;35.42;101233.81;5074802;28;20321;-70
2023/02/20 10:27:56;;;;;;;3.63;1.90;;;;;;;19.46;37.43;101227.03;5074076;28;20041;-68
2023/02/20 10:30:37;;;;;;;4.35;1.90;;;;;;;18.66;38.90;101195.06;5056699;28;20391;-69
2023/02/20 10:33:41;;;;;;;4.20;2.38;;;;;;;18.58;39.82;101218.66;5064136;28;20387;-69
2023/02/20 10:36:36;;;;;;;3.50;2.43;;;;;;;16.94;42.20;101227.75;5072975;28;20044;-70
2023/02/20 10:39:10;;;;;;;3.28;2.45;;;;;;;15.94;45.37;101213.22;5051450;28;20491;-70
2023/02/20 10:41:55;;;;;;;5.85;2.67;;;;;;;14.99;47.91;101221.44;5080064;28;20032;-70
2023/02/20 10:44:25;;;;;;;5.72;3.03;;;;;;;13.96;51.00;101218.25;5084966;28;20032;-68
2023/02/20 10:47:16;;;;;;;7.13;3.13;;;;;;;13.48;52.45;101209.88;5088100;28;20028;-69
2023/02/20 10:50:04;;;;;;;5.22;3.28;;;;;;;12.96;54.89;101211.72;5079975;28;20032;-69
2023/02/20 10:52:35;;;;;;;9.00;4.28;;;;;;;12.48;56.43;101191.53;5081236;28;20016;-69
2023/02/20 10:55:10;;;;;;;7.10;4.35;;;;;;;12.17;58.19;101190.47;5066264;28;20024;-69
2023/02/20 10:57:46;;;;;;;8.32;4.07;;;;;;;11.93;59.51;101170.06;5068897;28;20040;-69
2023/02/20 11:00:32;;;;;;;7.95;4.70;;;;;;;11.87;59.80;101181.31;5066677;28;20415;-68
2023/02/20 11:03:13;;;;;;;8.40;4.57;;;;;;;11.71;60.79;101170.06;5078284;28;20510;-69
2023/02/20 11:05:45;;;;;;;7.85;4.35;;;;;;;11.84;61.29;101160.06;5082030;28;20028;-69
2023/02/20 11:08:10;;;;;;;11.45;5.30;;;;;;;11.76;61.51;101167.84;5086556;28;20040;-68
2023/02/20 11:10:37;;;;;;;9.80;4.47;;;;;;;11.72;62.67;101163.69;5077672;28;20049;-68
2023/02/20 11:13:12;;;;;;;10.15;4.78;;;;;;;11.64;62.69;101158.94;5084151;28;20491;-69
2023/02/20 11:15:42;;;;;;;11.98;4.75;;;;;;;11.58;63.52;101154.88;5074427;28;20024;-69
2023/02/20 11:18:20;;;;;;;5.93;4.15;;;;;;;11.67;61.97;101128.28;5060120;28;20052;-69
2023/02/20 11:20:45;;;;;;;9.20;4.22;;;;;;;11.71;62.44;101141.38;5063679;28;20020;-69
2023/02/20 11:23:37;;;;;;;9.55;5.25;;;;;;;11.80;62.63;101137.94;5058947;28;20056;-68
2023/02/20 11:26:14;;;;;;;6.93;4.60;;;;;;;11.69;62.83;101127.19;5080897;28;20043;-69
2023/02/20 11:28:40;;;;;;;8.75;4.88;;;;;;;11.73;63.83;101127.81;5056914;28;20127;-69
2023/02/20 11:31:07;;;;;;;13.60;9.30;;;;;;;11.60;63.89;101102.88;5056395;28;20059;-69
2023/02/20 11:33:46;;;;;;;11.10;6.30;;;;;;;11.65;64.28;101140.97;5065527;28;20024;-68
2023/02/20 11:36:16;;;;;;;7.78;3.85;;;;;;;11.75;62.60;101133.91;5064888;28;20032;-68
2023/02/20 11:38:42;;;;;;;8.55;4.75;;;;;;;11.73;61.85;101117.91;5077553;28;20059;-69
2023/02/20 11:41:23;;;;;;;7.55;5.18;;;;;;;11.77;62.58;101122.03;5064138;28;20028;-70
2023/02/20 11:44:15;;;;;;;10.35;4.63;;;;;;;11.63;62.62;101108.00;5082605;28;20040;-69
2023/02/20 11:46:40;;;;;;;9.07;4.85;;;;;;;11.81;62.62;101096.66;5065621;28;20024;-69
2023/02/20 11:49:21;;;;;;;9.15;5.00;;;;;;;12.01;62.69;101097.72;5076882;28;20035;-69
2023/02/20 11:51:49;;;;;;;10.48;5.70;;;;;;;11.96;62.47;101081.13;5059509;28;20059;-70
2023/02/20 11:54:24;;;;;;;7.70;4.35;;;;;;;12.08;61.74;101115.91;5055834;28;20020;-69
2023/02/20 11:57:22;;;;;;;6.97;3.90;;;;;;;12.00;61.12;101093.31;5068126;28;20058;-69
2023/02/20 11:59:51;;;;;;;5.53;3.65;;;;;;;11.94;62.15;101108.13;5077509;28;20044;-67
2023/02/20 12:02:16;;;;;;;11.20;3.67;;;;;;;11.94;60.76;101104.56;5080628;28;20031;-70
2023/02/20 12:05:01;;;;;;;8.73;3.67;;;;;;;11.90;60.81;101092.38;5074065;28;20028;-70